Decoded Metar for YBAS (ALICE SPRINGS in AUSTRALIA) (IATA:ASP) | Meteo·Mobile Aviation Weather
aviador You're here:

YBAS Decoded Metar

ALICE SPRINGS in AUSTRALIA
Report Time2019-01-19 17:00:00
UTC Time2019-01-19 17:34:57
Flight Rules vfr VFR
Wind110° at 07 kt
W.Decomp.*RWY 12: 6.8 kt HW 1.8 kt LCW
RWY 17: 3.0 kt HW 6.3 kt LCW
W.Rank110° ranks 2
Current wind is below 110° avg. (8.6)
Visibility9999 m
Phenomena:N/A
Clouds:N/A
Expected CloudBase > 8,000 ft AGL from Temp-Dew spread
CeilingNone
Temp32°C (ISA +21)
Dew Point12°C (29% RH)
Heat Index30.7°C
AAT30.0°C
QNH1012 hPa
Density Alt4,334 ft
Elevation1,775 ft
Report Wrong Elevation
Raw Report
METAR YBAS 191700Z AUTO 11007KT 9999 // NCD 32/12 Q1012
RF00.0/000.0=

Extra information for YBAS:More info

Metar Taf Metar & Taf Last 4 Metars F.Rules Stats Wind Profile Meteogram Temp Stats Airport Information Weather charts Add Link Nearby VenuesMetar ALERT Operation Metar Decoded Social comments